createdAt,value
2023-05-05T04:18:43.726Z,100.00
2023-05-05T04:21:46.502Z,100.00
2023-05-05T04:24:49.385Z,99.68
2023-05-05T04:27:54.553Z,97.44
2023-05-05T04:30:57.635Z,96.79
2023-05-05T04:34:01.616Z,95.10
2023-05-05T04:37:04.115Z,94.27
2023-05-05T04:40:08.310Z,90.67
2023-05-05T04:43:10.867Z,88.19
2023-05-05T04:46:13.574Z,86.70
2023-05-05T04:49:17.418Z,83.12
2023-05-05T04:52:19.945Z,82.84
2023-05-05T05:00:18.775Z,83.53
2023-05-05T05:03:21.392Z,83.90
2023-05-05T05:06:24.103Z,84.67
2023-05-05T05:09:26.577Z,84.35
2023-05-05T05:12:29.152Z,83.60
2023-05-05T05:15:33.009Z,82.49
2023-05-05T05:18:35.534Z,80.23
2023-05-05T05:21:37.968Z,78.61
2023-05-05T05:24:40.410Z,79.64
2023-05-05T05:27:42.966Z,77.71
2023-05-05T05:30:46.766Z,76.96
2023-05-05T05:33:49.215Z,75.33
2023-05-05T05:36:51.735Z,75.10
2023-05-05T05:39:54.465Z,74.84
2023-05-05T05:42:56.928Z,74.61
2023-05-05T05:46:00.935Z,75.48
2023-05-05T05:49:03.415Z,74.28
2023-05-05T05:52:05.939Z,73.73
2023-05-05T05:55:09.655Z,73.24
2023-05-05T05:58:12.130Z,74.27
2023-05-05T06:01:15.980Z,74.77
2023-05-05T06:04:18.561Z,73.88
2023-05-05T06:07:21.125Z,75.54
2023-05-05T06:10:27.988Z,74.59
2023-05-05T06:13:30.926Z,74.95
2023-05-05T06:16:34.790Z,74.87
2023-05-05T06:19:39.706Z,74.00
2023-05-05T06:22:42.167Z,73.65
2023-05-05T06:25:44.765Z,74.58
2023-05-05T06:28:47.295Z,73.88
2023-05-05T06:31:51.196Z,73.27
2023-05-05T06:34:53.710Z,71.05
2023-05-05T06:37:56.219Z,70.70
2023-05-05T06:40:59.378Z,71.10
2023-05-05T06:44:01.941Z,74.41
2023-05-05T06:47:05.948Z,74.70
2023-05-05T06:50:10.216Z,73.28
2023-05-05T06:53:12.978Z,73.27
2023-05-05T06:56:15.531Z,74.81
2023-05-05T06:59:18.452Z,75.71
2023-05-05T07:02:22.564Z,75.55
2023-05-05T07:05:26.008Z,71.76
2023-05-05T07:08:28.462Z,69.18
2023-05-05T07:11:31.011Z,68.05
2023-05-05T07:14:33.785Z,68.42
2023-05-05T07:17:37.652Z,71.38
2023-05-05T07:20:40.309Z,73.81
2023-05-05T07:23:42.773Z,74.10
2023-05-05T07:26:45.343Z,72.42
2023-05-05T07:29:47.794Z,71.97
2023-05-05T07:32:51.818Z,70.28
2023-05-05T07:35:54.363Z,68.64
2023-05-05T07:38:56.883Z,64.69
2023-05-05T07:41:59.420Z,63.84
2023-05-05T07:45:01.899Z,62.64
2023-05-05T07:48:05.911Z,62.81
2023-05-05T07:51:08.435Z,64.06
2023-05-05T07:54:11.015Z,63.62
2023-05-05T07:57:13.701Z,63.03
2023-05-05T08:00:19.320Z,64.47
2023-05-05T08:03:24.909Z,64.34
2023-05-05T08:06:27.753Z,62.08
2023-05-05T08:09:30.461Z,61.63
2023-05-05T08:12:33.013Z,61.96
2023-05-05T08:15:38.201Z,58.45
2023-05-05T08:18:42.495Z,59.99
2023-05-05T08:21:45.151Z,58.35
2023-05-05T08:24:47.682Z,57.70
2023-05-05T08:27:50.151Z,58.13
2023-05-05T08:30:52.696Z,58.48
2023-05-05T08:33:56.528Z,59.86
2023-05-05T08:36:58.991Z,61.20
2023-05-05T08:40:01.554Z,59.75
2023-05-05T08:43:04.832Z,59.35
2023-05-05T08:46:11.244Z,61.54
2023-05-05T08:49:18.643Z,62.86
2023-05-05T08:52:24.637Z,61.82
2023-05-05T08:55:33.695Z,64.63
2023-05-05T08:58:38.059Z,66.99
2023-05-05T09:01:42.148Z,65.84
2023-05-05T09:04:46.539Z,66.57
2023-05-05T09:07:49.056Z,64.88
2023-05-05T09:10:52.254Z,64.51
2023-05-05T09:13:55.780Z,64.56
2023-05-05T09:16:58.367Z,61.19
2023-05-05T09:20:05.099Z,60.92
2023-05-05T09:23:11.858Z,61.06
2023-05-05T09:26:14.576Z,61.96
2023-05-05T09:29:20.992Z,62.83
2023-05-05T09:32:23.935Z,63.70
2023-05-05T09:35:27.840Z,64.87
2023-05-05T09:38:30.317Z,65.84
2023-05-05T09:41:39.513Z,64.02
2023-05-05T09:44:42.286Z,62.80
2023-05-05T09:47:46.520Z,61.79
2023-05-05T09:50:50.735Z,63.66
2023-05-05T09:53:53.224Z,60.53
2023-05-05T09:56:56.248Z,61.71
2023-05-05T10:00:00.350Z,66.37
2023-05-05T10:03:04.109Z,63.79
2023-05-05T10:06:08.605Z,63.06
2023-05-05T10:09:11.121Z,66.71
2023-05-05T10:12:13.831Z,65.89
2023-05-05T10:15:16.872Z,66.68
2023-05-05T10:18:22.134Z,64.99
2023-05-05T10:21:26.850Z,65.89
2023-05-05T10:24:35.761Z,65.86
2023-05-05T10:27:44.374Z,69.14
2023-05-05T10:30:53.310Z,71.30
2023-05-05T10:34:01.709Z,67.57
2023-05-05T10:37:07.174Z,65.42
2023-05-05T10:40:10.800Z,60.67
2023-05-05T10:43:15.255Z,59.34
2023-05-05T10:46:17.978Z,63.74
2023-05-05T10:49:32.040Z,65.23
2023-05-05T10:52:41.486Z,67.52
2023-05-05T10:55:50.474Z,71.38
2023-05-05T10:59:00.030Z,76.14
2023-05-05T11:02:19.356Z,70.28
2023-05-05T11:05:22.560Z,70.13
2023-05-05T11:08:29.544Z,65.43
2023-05-05T11:12:03.413Z,66.78
2023-05-05T11:15:35.461Z,64.62
2023-05-05T11:18:39.180Z,70.08
2023-05-05T11:22:01.205Z,71.59
2023-05-05T11:25:47.311Z,66.83
2023-05-05T11:28:58.563Z,62.77
2023-05-05T11:32:19.964Z,65.46
2023-05-05T11:35:22.482Z,64.96
2023-05-05T11:38:32.057Z,64.80
2023-05-05T11:41:55.330Z,66.11
2023-05-05T11:44:58.073Z,64.05
2023-05-05T11:48:27.753Z,69.58
2023-05-05T11:51:30.881Z,69.45
2023-05-05T11:54:33.885Z,69.97
2023-05-05T11:57:37.868Z,65.20
2023-05-05T12:00:40.336Z,64.95
2023-05-05T12:03:43.454Z,63.18
2023-05-05T12:06:47.121Z,61.09
2023-05-05T12:09:50.578Z,62.93
2023-05-05T12:12:55.456Z,63.82
2023-05-05T12:15:58.209Z,64.10
2023-05-05T12:19:08.068Z,63.47
2023-05-05T12:22:10.522Z,66.87
2023-05-05T12:25:12.997Z,66.76
2023-05-05T12:28:16.808Z,64.36
2023-05-05T12:31:19.419Z,67.48
2023-05-05T12:34:23.049Z,70.90
2023-05-05T12:37:27.517Z,70.03
2023-05-05T12:40:52.804Z,61.82
2023-05-05T12:43:57.590Z,60.90
2023-05-05T12:47:00.107Z,63.00
2023-05-05T12:50:03.282Z,60.42
2023-05-05T12:53:05.808Z,61.85
2023-05-05T12:56:38.908Z,61.12
2023-05-05T12:59:41.353Z,61.51
2023-05-05T13:02:43.933Z,62.89
2023-05-05T13:05:46.470Z,66.36
2023-05-05T13:08:49.069Z,61.20
2023-05-05T13:11:53.553Z,63.15
2023-05-05T13:14:56.016Z,61.70
2023-05-05T13:18:02.507Z,63.27
2023-05-05T13:21:05.240Z,59.88
2023-05-05T13:24:25.366Z,58.51
2023-05-05T13:27:32.070Z,57.15
2023-05-05T13:30:34.669Z,57.50
2023-05-05T13:33:37.322Z,58.17
2023-05-05T13:36:39.778Z,55.78
2023-05-05T13:39:42.273Z,56.99
2023-05-05T13:42:46.244Z,58.17
2023-05-05T13:45:48.769Z,57.64
2023-05-05T13:48:55.974Z,57.14
2023-05-05T13:51:59.271Z,54.73
2023-05-05T13:55:01.892Z,55.33
2023-05-05T13:58:05.803Z,54.76
2023-05-05T14:01:08.307Z,56.63
2023-05-05T14:04:10.832Z,58.82
2023-05-05T14:07:13.357Z,58.30
2023-05-05T14:10:15.878Z,58.44
2023-05-05T14:13:19.731Z,59.04
2023-05-05T14:16:22.420Z,57.95
2023-05-05T14:19:25.021Z,59.69
2023-05-05T14:22:27.539Z,62.20
2023-05-05T14:25:30.019Z,63.64
2023-05-05T14:28:33.929Z,63.72
2023-05-05T14:31:36.807Z,63.82
2023-05-05T14:34:39.350Z,62.64
2023-05-05T14:37:42.078Z,63.65
2023-05-05T14:40:44.699Z,66.31
2023-05-05T14:43:48.576Z,64.46
2023-05-05T14:46:51.448Z,65.38
2023-05-05T14:49:53.959Z,65.68
2023-05-05T14:52:56.422Z,63.87
2023-05-05T14:55:58.918Z,65.55
2023-05-05T14:59:02.773Z,65.57
2023-05-05T15:02:05.318Z,65.60
2023-05-05T15:05:09.015Z,66.09
2023-05-05T15:08:11.685Z,65.69
2023-05-05T15:11:14.727Z,63.73
2023-05-05T15:14:18.609Z,63.30
2023-05-05T15:17:21.211Z,63.23
2023-05-05T15:20:23.832Z,63.65
2023-05-05T15:23:26.336Z,62.91
2023-05-05T15:26:28.796Z,62.17
2023-05-05T15:29:32.592Z,62.11
2023-05-05T15:32:35.162Z,59.56
2023-05-05T15:35:37.750Z,61.37
2023-05-05T15:38:43.181Z,61.20
2023-05-05T15:41:45.673Z,60.35
2023-05-05T15:44:49.516Z,60.44
2023-05-05T15:47:52.833Z,61.98
2023-05-05T15:50:55.467Z,63.35
2023-05-05T15:53:57.920Z,61.56
2023-05-05T15:57:00.408Z,59.91
2023-05-05T16:00:04.702Z,60.78
2023-05-05T16:03:07.222Z,62.52
2023-05-05T16:06:12.457Z,61.82
2023-05-05T16:09:14.951Z,60.09
2023-05-05T16:12:17.464Z,59.93
2023-05-05T16:15:21.533Z,61.66
2023-05-05T16:18:24.144Z,62.96
2023-05-05T16:21:27.418Z,63.23
2023-05-05T16:24:29.917Z,62.04
2023-05-05T16:27:32.453Z,62.26
2023-05-05T16:30:36.333Z,62.82
2023-05-05T16:33:40.875Z,61.97
2023-05-05T16:36:44.403Z,62.43
2023-05-05T16:39:47.062Z,62.41
2023-05-05T16:42:49.591Z,62.31
2023-05-05T16:45:53.399Z,62.39
2023-05-05T16:48:56.310Z,62.77
2023-05-05T16:51:58.854Z,63.94
2023-05-05T16:55:01.386Z,64.71
2023-05-05T16:58:04.010Z,64.02
2023-05-05T17:01:07.920Z,63.16
2023-05-05T17:04:11.003Z,62.98
2023-05-05T17:07:13.488Z,63.88
2023-05-05T17:10:15.970Z,63.21
2023-05-05T17:13:19.174Z,65.03
2023-05-05T17:16:23.172Z,64.09
2023-05-05T17:19:25.841Z,64.44
2023-05-05T17:22:28.470Z,65.43
2023-05-05T17:25:30.930Z,66.14
2023-05-05T17:28:33.486Z,65.44
2023-05-05T17:31:37.319Z,65.49
2023-05-05T17:34:41.048Z,65.79
2023-05-05T17:37:43.603Z,66.23
2023-05-05T17:40:46.080Z,66.72
2023-05-05T17:43:48.893Z,67.27
2023-05-05T17:46:52.723Z,67.81
2023-05-05T17:49:56.859Z,68.25
2023-05-05T17:52:59.333Z,68.13
2023-05-05T17:56:01.832Z,69.23
2023-05-05T17:59:04.381Z,69.45
2023-05-05T18:02:08.270Z,70.64
2023-05-05T18:05:11.334Z,70.72
2023-05-05T18:08:13.947Z,70.28
2023-05-05T18:11:16.406Z,71.03
2023-05-05T18:14:20.213Z,72.07
2023-05-05T18:17:24.074Z,71.89
2023-05-05T18:20:26.561Z,72.41
2023-05-05T18:23:29.079Z,72.51
2023-05-05T18:26:31.571Z,74.08
2023-05-05T18:29:35.150Z,73.71
2023-05-05T18:32:39.238Z,73.70
2023-05-05T18:35:41.739Z,74.08
2023-05-05T18:38:44.235Z,74.90
2023-05-05T18:41:46.961Z,75.44
2023-05-05T18:44:49.429Z,75.27
2023-05-05T18:47:53.315Z,76.73
2023-05-05T18:50:55.835Z,77.38
2023-05-05T18:53:58.310Z,77.96
2023-05-05T18:57:01.131Z,78.53
2023-05-05T19:00:03.656Z,79.75
2023-05-05T19:03:07.448Z,80.27
2023-05-05T19:06:10.032Z,79.72
2023-05-05T19:09:12.543Z,79.72
2023-05-05T19:12:15.017Z,81.06
2023-05-05T19:15:18.281Z,80.64
2023-05-05T19:18:22.092Z,82.16
2023-05-05T19:21:24.570Z,82.18
2023-05-05T19:24:27.043Z,82.05
2023-05-05T19:27:29.507Z,82.78
2023-05-05T19:30:32.170Z,82.31
2023-05-05T19:33:36.417Z,83.45
2023-05-05T19:36:39.012Z,82.92
2023-05-05T19:39:43.127Z,83.13
